Time;durP1;ratioP1;P1;durP2;ratioP2;P2;SDS_P1;SDS_P2;PMS_P1;PMS_P2;Temp;Humidity;BMP_temperature;BMP_pressure;BME280_temperature;BME280_humidity;BME280_pressure;Samples;Min_cycle;Max_cycle;Signal;HPM_P1;HPM_P2
2023/01/26 00:00:55;;;;;;;0.73;0.73;;;;;;;1.94;100.00;101011.81;5054348;28;20446;-55
2023/01/26 00:03:21;;;;;;;5.70;1.47;;;;;;;2.00;100.00;101019.78;5054741;28;20898;-54
2023/01/26 00:05:48;;;;;;;2.70;1.43;;;;;;;1.85;100.00;101006.41;5054645;28;20451;-54
2023/01/26 00:08:14;;;;;;;1.50;0.87;;;;;;;1.69;100.00;101000.00;5055061;28;20447;-53
2023/01/26 00:10:48;;;;;;;1.20;1.17;;;;;;;2.08;100.00;101007.69;5054119;28;20982;-53
2023/01/26 00:13:18;;;;;;;2.47;2.10;;;;;;;1.82;100.00;101003.72;5054139;28;20824;-53
2023/01/26 00:15:44;;;;;;;1.37;1.27;;;;;;;1.82;100.00;100998.50;5054238;28;20455;-53
2023/01/26 00:18:12;;;;;;;1.57;1.50;;;;;;;2.02;100.00;100990.09;5054017;28;20490;-53
2023/01/26 00:20:39;;;;;;;0.50;0.50;;;;;;;1.93;100.00;100989.97;5054586;28;20469;-54
2023/01/26 00:23:05;;;;;;;3.30;1.40;;;;;;;2.09;100.00;100993.72;5054117;28;20477;-53
2023/01/26 00:25:31;;;;;;;2.10;2.00;;;;;;;1.88;100.00;100995.97;5053963;28;20458;-53
2023/01/26 00:27:58;;;;;;;1.27;0.97;;;;;;;1.83;100.00;100998.50;5053823;28;20538;-54
2023/01/26 00:30:24;;;;;;;3.40;2.60;;;;;;;2.03;100.00;100991.88;5054014;28;20530;-53
2023/01/26 00:32:51;;;;;;;2.13;0.97;;;;;;;1.93;100.00;101003.06;5054069;28;20505;-53
2023/01/26 00:35:17;;;;;;;1.03;1.03;;;;;;;1.84;100.00;100999.41;5054140;28;20512;-53
2023/01/26 00:37:44;;;;;;;1.70;1.70;;;;;;;1.92;100.00;101001.31;5053811;28;20512;-53
2023/01/26 00:40:10;;;;;;;0.77;0.77;;;;;;;1.94;100.00;100996.97;5053637;28;20524;-53
2023/01/26 00:42:38;;;;;;;4.40;1.73;;;;;;;1.89;100.00;100998.59;5054119;28;20554;-54
2023/01/26 00:45:05;;;;;;;1.97;1.80;;;;;;;1.92;100.00;100992.53;5053873;28;20454;-53
2023/01/26 00:47:32;;;;;;;0.73;0.73;;;;;;;1.89;100.00;100989.88;5053576;28;20447;-53
2023/01/26 00:49:58;;;;;;;5.23;1.40;;;;;;;1.89;100.00;100990.75;5053983;28;20461;-53
2023/01/26 00:52:24;;;;;;;1.70;1.60;;;;;;;2.35;100.00;100983.69;5053432;28;20471;-53
2023/01/26 00:54:51;;;;;;;1.13;1.03;;;;;;;2.38;100.00;100987.22;5053630;28;20487;-53
2023/01/26 00:57:17;;;;;;;0.80;0.80;;;;;;;2.55;100.00;100992.72;5053743;28;20447;-53
2023/01/26 00:59:43;;;;;;;1.50;1.40;;;;;;;2.12;100.00;100991.16;5053169;28;20447;-53
2023/01/26 01:02:10;;;;;;;4.13;1.80;;;;;;;2.03;100.00;100999.72;5053085;28;20900;-53
2023/01/26 01:04:36;;;;;;;2.77;1.90;;;;;;;2.23;100.00;100997.47;5052250;28;20490;-53
2023/01/26 01:07:03;;;;;;;1.03;1.03;;;;;;;2.25;100.00;100997.50;5053151;28;20446;-53
2023/01/26 01:09:29;;;;;;;2.97;2.77;;;;;;;2.11;100.00;101001.63;5053172;28;20530;-53
2023/01/26 01:11:56;;;;;;;8.13;2.00;;;;;;;2.17;100.00;100994.72;5052871;28;20859;-53
2023/01/26 01:14:22;;;;;;;1.53;1.43;;;;;;;2.29;100.00;100989.69;5053088;28;20490;-53
2023/01/26 01:16:49;;;;;;;1.23;1.23;;;;;;;2.21;100.00;100991.31;5053059;28;20453;-53
2023/01/26 01:19:17;;;;;;;1.40;1.40;;;;;;;2.31;100.00;100997.56;5053042;28;20458;-54
2023/01/26 01:21:44;;;;;;;0.60;0.60;;;;;;;2.22;100.00;100994.81;5052783;28;20447;-53
2023/01/26 01:24:11;;;;;;;2.03;1.17;;;;;;;2.16;100.00;100999.94;5052962;28;20509;-53
2023/01/26 01:26:38;;;;;;;0.93;0.93;;;;;;;1.97;100.00;100997.03;5052724;28;20457;-53
2023/01/26 01:29:05;;;;;;;0.60;0.60;;;;;;;1.87;100.00;100991.59;5053115;28;20450;-53
2023/01/26 01:31:31;;;;;;;0.80;0.80;;;;;;;1.89;100.00;100988.13;5052869;28;20850;-53
2023/01/26 01:33:58;;;;;;;0.93;0.93;;;;;;;1.74;100.00;100982.59;5052722;28;20573;-53
2023/01/26 01:36:24;;;;;;;2.10;2.00;;;;;;;1.67;100.00;100992.13;5052486;28;20545;-53
2023/01/26 01:38:51;;;;;;;0.73;0.73;;;;;;;1.92;100.00;101000.41;5053038;28;20461;-53
2023/01/26 01:41:21;;;;;;;5.30;0.83;;;;;;;1.94;100.00;100996.97;5052397;28;21001;-53
2023/01/26 01:44:08;;;;;;;0.70;0.70;;;;;;;2.03;100.00;100997.13;5052809;28;20494;-53
2023/01/26 01:46:36;;;;;;;2.30;0.80;;;;;;;2.00;100.00;101002.31;5040262;28;20477;-53
2023/01/26 01:49:14;;;;;;;0.83;0.83;;;;;;;2.06;100.00;100991.94;5052644;28;20816;-53
2023/01/26 01:51:51;;;;;;;0.20;0.20;;;;;;;2.00;100.00;100985.69;5053489;28;20951;-53
2023/01/26 01:54:24;;;;;;;2.43;0.67;;;;;;;1.99;100.00;100989.19;5052477;28;20501;-53
2023/01/26 01:56:54;;;;;;;0.30;0.30;;;;;;;1.80;100.00;100984.47;5052579;28;20485;-53
2023/01/26 01:59:21;;;;;;;0.20;0.20;;;;;;;1.85;100.00;100985.44;5052445;28;20457;-53
2023/01/26 02:01:50;;;;;;;0.40;0.30;;;;;;;1.62;100.00;100975.41;5052409;28;20504;-53
2023/01/26 02:04:18;;;;;;;0.40;0.40;;;;;;;1.60;100.00;100979.72;5039193;28;21035;-53
2023/01/26 02:06:51;;;;;;;0.40;0.37;;;;;;;1.32;100.00;100973.09;5034871;28;20457;-53
2023/01/26 02:12:13;;;;;;;0.37;0.37;;;;;;;1.71;100.00;100970.34;5052171;28;20478;-53
2023/01/26 02:14:40;;;;;;;0.40;0.20;;;;;;;1.66;100.00;100968.50;5052113;28;20486;-53
2023/01/26 02:17:08;;;;;;;0.50;0.50;;;;;;;1.54;100.00;100966.53;5055945;28;20453;-53
2023/01/26 02:19:49;;;;;;;0.33;0.33;;;;;;;1.84;100.00;100975.81;5056526;28;20450;-53
2023/01/26 02:22:29;;;;;;;0.63;0.63;;;;;;;1.75;100.00;100969.53;5056426;28;20463;-53
2023/01/26 02:25:03;;;;;;;0.27;0.23;;;;;;;1.48;100.00;100963.78;5056291;28;20485;-53
2023/01/26 02:27:29;;;;;;;1.70;0.53;;;;;;;1.53;100.00;100959.53;5056418;28;20927;-53
2023/01/26 02:29:59;;;;;;;0.50;0.47;;;;;;;1.67;100.00;100963.28;5038826;28;20450;-53
2023/01/26 02:32:27;;;;;;;1.20;0.57;;;;;;;1.48;100.00;100963.78;5056383;28;20498;-53
2023/01/26 02:34:56;;;;;;;0.30;0.20;;;;;;;1.33;100.00;100953.91;5055973;28;20486;-53
2023/01/26 02:37:23;;;;;;;0.20;0.10;;;;;;;1.46;100.00;100950.66;5056223;28;20454;-53
2023/01/26 02:39:58;;;;;;;1.50;0.63;;;;;;;1.69;100.00;100956.34;5038177;28;20505;-53
2023/01/26 02:42:37;;;;;;;0.30;0.20;;;;;;;1.33;100.00;100943.41;5056013;28;20573;-53
2023/01/26 02:45:05;;;;;;;0.60;0.50;;;;;;;1.66;100.00;100951.03;5056086;28;20447;-53
2023/01/26 02:47:31;;;;;;;0.57;0.50;;;;;;;1.54;100.00;100952.56;5055835;28;20462;-53
2023/01/26 02:49:59;;;;;;;0.30;0.30;;;;;;;1.87;100.00;100947.03;5055811;28;20451;-53
2023/01/26 02:52:28;;;;;;;0.40;0.40;;;;;;;1.62;100.00;100948.31;5055479;28;21054;-53
2023/01/26 02:57:40;;;;;;;0.50;0.50;;;;;;;1.71;100.00;100951.13;5055616;28;20451;-53
2023/01/26 03:00:21;;;;;;;0.30;0.20;;;;;;;1.82;100.00;100946.97;5055551;28;20999;-53
2023/01/26 03:02:49;;;;;;;0.97;0.60;;;;;;;1.85;100.00;100949.63;5055584;28;20488;-54
2023/01/26 03:05:16;;;;;;;0.50;0.50;;;;;;;2.08;100.00;100942.16;5055514;28;20453;-54
2023/01/26 03:07:42;;;;;;;0.30;0.20;;;;;;;1.85;100.00;100939.13;5055588;28;20446;-53
2023/01/26 03:10:15;;;;;;;0.50;0.37;;;;;;;1.89;100.00;100927.84;5055356;28;20450;-53
2023/01/26 03:12:41;;;;;;;0.30;0.20;;;;;;;1.68;100.00;100927.50;5055368;28;20841;-53
2023/01/26 03:29:03;;;;;;;2.77;1.27;;;;;;;1.39;100.00;100913.88;5054490;28;20447;-53
2023/01/26 03:31:29;;;;;;;0.87;0.87;;;;;;;1.48;100.00;100906.16;5054990;28;20473;-53
2023/01/26 03:33:56;;;;;;;0.30;0.20;;;;;;;1.44;100.00;100909.59;5054953;28;20467;-53
2023/01/26 03:36:22;;;;;;;3.40;0.50;;;;;;;1.37;100.00;100911.22;5055103;28;20504;-53
2023/01/26 03:38:49;;;;;;;1.23;1.23;;;;;;;1.45;100.00;100903.50;5054837;28;21003;-53
2023/01/26 03:57:44;;;;;;;1.03;1.03;;;;;;;1.41;100.00;100893.81;5042228;28;20446;-53
2023/01/26 04:00:13;;;;;;;0.30;0.20;;;;;;;1.57;100.00;100889.72;5054789;28;20446;-53
2023/01/26 04:08:23;;;;;;;0.30;0.23;;;;;;;1.36;100.00;100885.88;5054565;28;20471;-53
2023/01/26 04:10:53;;;;;;;1.27;0.50;;;;;;;1.64;100.00;100883.72;5049220;28;20541;-53
2023/01/26 04:21:39;;;;;;;1.80;0.90;;;;;;;1.60;100.00;100874.06;5054539;28;20808;-53
2023/01/26 04:24:08;;;;;;;1.80;1.43;;;;;;;1.63;100.00;100869.75;5054161;28;20541;-53
2023/01/26 04:26:35;;;;;;;0.30;0.20;;;;;;;1.52;100.00;100868.72;5054076;28;20475;-53
2023/01/26 04:29:04;;;;;;;2.20;0.40;;;;;;;1.51;100.00;100855.56;5054155;28;20450;-53
2023/01/26 04:31:31;;;;;;;0.60;0.50;;;;;;;1.48;100.00;100865.13;5053912;28;20451;-53
2023/01/26 04:34:02;;;;;;;0.30;0.20;;;;;;;1.49;100.00;100856.41;5053775;28;20971;-54
2023/01/26 04:36:29;;;;;;;7.73;0.73;;;;;;;1.34;100.00;100861.38;5053633;28;20494;-53
2023/01/26 04:38:56;;;;;;;0.40;0.40;;;;;;;1.53;100.00;100865.22;5053714;28;20512;-53
2023/01/26 04:41:23;;;;;;;0.40;0.30;;;;;;;1.63;100.00;100861.00;5053961;28;20508;-53
2023/01/26 04:43:49;;;;;;;1.33;1.23;;;;;;;1.58;100.00;100860.06;5053757;28;20466;-53
2023/01/26 04:46:15;;;;;;;1.60;0.53;;;;;;;1.80;100.00;100851.72;5053795;28;20450;-53
2023/01/26 04:48:42;;;;;;;0.83;0.83;;;;;;;1.84;100.00;100852.63;5053473;28;20537;-53
2023/01/26 04:51:15;;;;;;;0.67;0.40;;;;;;;1.72;100.00;100850.69;5053395;28;20856;-54
2023/01/26 04:53:41;;;;;;;0.50;0.40;;;;;;;1.51;100.00;100852.94;5053368;28;20462;-53
2023/01/26 04:56:29;;;;;;;0.20;0.20;;;;;;;1.70;100.00;100855.91;5053613;28;20497;-54
2023/01/26 04:58:58;;;;;;;0.83;0.73;;;;;;;1.45;100.00;100851.09;5053439;28;20896;-53
2023/01/26 05:01:25;;;;;;;1.27;0.40;;;;;;;1.37;100.00;100851.00;5053336;28;20461;-53
2023/01/26 05:03:51;;;;;;;0.50;0.50;;;;;;;1.33;100.00;100840.41;5052921;28;20983;-54
2023/01/26 05:06:18;;;;;;;1.27;1.07;;;;;;;1.50;100.00;100841.56;5053254;28;20881;-53
2023/01/26 05:08:45;;;;;;;0.83;0.30;;;;;;;1.42;100.00;100843.19;5053145;28;20450;-53
2023/01/26 05:11:15;;;;;;;0.50;0.50;;;;;;;1.41;100.00;100850.19;5053569;28;20496;-54
2023/01/26 05:13:41;;;;;;;0.37;0.37;;;;;;;1.58;100.00;100854.81;5052920;28;20470;-52
2023/01/26 05:16:08;;;;;;;0.40;0.40;;;;;;;1.46;100.00;100852.88;5053213;28;20569;-53
2023/01/26 05:18:34;;;;;;;4.87;1.23;;;;;;;1.48;100.00;100846.78;5053349;28;20994;-54
2023/01/26 05:21:01;;;;;;;1.60;0.73;;;;;;;1.42;100.00;100846.69;5053450;28;20447;-53
2023/01/26 05:23:28;;;;;;;0.60;0.60;;;;;;;1.45;100.00;100845.88;5052800;28;20984;-53
2023/01/26 05:25:54;;;;;;;0.87;0.60;;;;;;;1.63;100.00;100847.91;5053212;28;20447;-54
2023/01/26 05:28:20;;;;;;;0.50;0.50;;;;;;;1.66;100.00;100847.97;5052551;28;20451;-54
2023/01/26 05:30:47;;;;;;;2.53;1.23;;;;;;;1.95;100.00;100840.56;5052749;28;20856;-53
2023/01/26 05:33:14;;;;;;;1.00;0.93;;;;;;;1.98;100.00;100849.34;5052740;28;20814;-53
2023/01/26 05:35:41;;;;;;;1.80;1.13;;;;;;;1.92;100.00;100853.59;5052755;28;21074;-53
2023/01/26 05:38:08;;;;;;;0.63;0.63;;;;;;;1.64;100.00;100849.66;5052903;28;20462;-53
2023/01/26 05:40:34;;;;;;;0.43;0.40;;;;;;;1.67;100.00;100853.25;5052613;28;20458;-53
2023/01/26 05:43:01;;;;;;;3.60;0.80;;;;;;;1.78;100.00;100849.06;5052473;28;21065;-53
2023/01/26 05:45:27;;;;;;;0.90;0.40;;;;;;;1.56;100.00;100854.78;5052592;28;20490;-53
2023/01/26 05:47:53;;;;;;;7.17;0.60;;;;;;;1.39;100.00;100853.63;5052684;28;20451;-53
2023/01/26 05:50:20;;;;;;;0.50;0.40;;;;;;;1.57;100.00;100853.94;5051996;28;20447;-53
2023/01/26 05:52:47;;;;;;;0.80;0.80;;;;;;;1.40;100.00;100853.66;5052276;28;20466;-53
2023/01/26 05:55:13;;;;;;;0.50;0.50;;;;;;;1.51;100.00;100855.56;5052429;28;20487;-53
2023/01/26 05:57:40;;;;;;;0.67;0.67;;;;;;;1.31;100.00;100848.25;5052040;28;20880;-53
2023/01/26 06:00:07;;;;;;;0.30;0.30;;;;;;;1.39;100.00;100844.03;5052390;28;20547;-53
2023/01/26 06:02:34;;;;;;;2.37;1.87;;;;;;;1.39;100.00;100846.66;5039581;28;20536;-56
2023/01/26 06:05:01;;;;;;;2.00;0.70;;;;;;;1.45;100.00;100853.72;5052131;28;20530;-56
2023/01/26 06:07:27;;;;;;;1.03;0.70;;;;;;;1.48;100.00;100851.16;5052145;28;20447;-55
2023/01/26 06:09:54;;;;;;;1.40;1.17;;;;;;;1.33;100.00;100849.16;5052258;28;20501;-56
2023/01/26 06:12:21;;;;;;;3.50;1.90;;;;;;;1.40;100.00;100850.16;5038831;28;20475;-56
2023/01/26 06:14:48;;;;;;;21.53;1.60;;;;;;;1.48;100.00;100851.16;5052315;28;20500;-55
2023/01/26 06:17:16;;;;;;;4.63;0.93;;;;;;;1.51;100.00;100855.56;5052150;28;20495;-56
2023/01/26 06:19:43;;;;;;;0.50;0.50;;;;;;;1.55;100.00;100858.28;5052018;28;21034;-56
2023/01/26 06:22:11;;;;;;;0.83;0.37;;;;;;;1.60;100.00;100843.50;5052230;28;20546;-55
2023/01/26 06:24:37;;;;;;;0.60;0.60;;;;;;;1.58;100.00;100849.59;5051869;28;20477;-56
2023/01/26 06:27:07;;;;;;;0.90;0.80;;;;;;;1.53;100.00;100849.50;5052280;28;20446;-55
2023/01/26 06:29:33;;;;;;;1.33;1.23;;;;;;;1.57;100.00;100860.91;5052048;28;20505;-56
2023/01/26 06:32:00;;;;;;;2.30;1.83;;;;;;;1.52;100.00;100859.97;5051968;28;20482;-56
2023/01/26 06:34:26;;;;;;;2.10;0.93;;;;;;;1.48;100.00;100854.66;5052322;28;20446;-56
2023/01/26 06:36:53;;;;;;;3.60;1.67;;;;;;;1.44;100.00;100852.84;5052005;28;20491;-56
2023/01/26 06:39:20;;;;;;;0.30;0.30;;;;;;;1.46;100.00;100861.59;5051664;28;20457;-56
2023/01/26 06:41:46;;;;;;;1.83;1.80;;;;;;;1.55;100.00;100858.28;5051977;28;20842;-56
2023/01/26 06:44:12;;;;;;;0.53;0.53;;;;;;;2.00;100.00;100863.38;5051674;28;20956;-56
2023/01/26 06:46:39;;;;;;;1.17;1.17;;;;;;;1.45;100.00;100862.47;5051921;28;20447;-55
2023/01/26 06:49:05;;;;;;;1.33;1.30;;;;;;;1.38;100.00;100864.97;5051821;28;20447;-55
2023/01/26 06:51:38;;;;;;;0.90;0.90;;;;;;;1.71;100.00;100868.16;5051695;28;20534;-55
2023/01/26 06:54:04;;;;;;;2.43;0.97;;;;;;;1.35;99.83;100871.00;5051845;28;20466;-55
2023/01/26 06:56:34;;;;;;;2.63;0.90;;;;;;;1.52;99.92;100871.31;5051878;28;20506;-55
2023/01/26 06:59:00;;;;;;;5.30;1.47;;;;;;;1.52;99.57;100866.09;5051739;28;20462;-55
2023/01/26 07:01:33;;;;;;;5.03;2.23;;;;;;;1.44;99.91;100878.16;5052519;28;20453;-56
2023/01/26 07:04:00;;;;;;;0.77;0.77;;;;;;;1.40;99.13;100879.84;5055270;28;20539;-55
2023/01/26 07:06:26;;;;;;;2.60;1.13;;;;;;;1.26;100.00;100883.94;5055276;28;20482;-55
2023/01/26 07:08:53;;;;;;;2.17;0.93;;;;;;;1.48;99.46;100887.81;5055279;28;20451;-56
2023/01/26 07:11:20;;;;;;;0.67;0.67;;;;;;;1.37;99.94;100890.28;5055438;28;20808;-55
2023/01/26 07:13:47;;;;;;;0.93;0.93;;;;;;;1.15;99.68;100888.97;5055102;28;20462;-55
2023/01/26 07:16:15;;;;;;;1.57;1.43;;;;;;;1.12;100.00;100896.78;5055135;28;20516;-55
2023/01/26 07:18:42;;;;;;;2.27;1.37;;;;;;;1.16;100.00;100892.47;5037465;28;20847;-56
2023/01/26 07:21:10;;;;;;;1.83;1.70;;;;;;;1.05;100.00;100901.84;5055077;28;20446;-55
2023/01/26 07:23:37;;;;;;;0.60;0.40;;;;;;;1.08;100.00;100894.94;5041917;28;20485;-55
2023/01/26 07:26:04;;;;;;;1.40;0.90;;;;;;;1.36;99.80;100906.81;5055096;28;20443;-55
2023/01/26 07:28:33;;;;;;;2.30;1.03;;;;;;;1.52;99.02;100908.00;5054993;28;20446;-55
2023/01/26 07:31:00;;;;;;;2.67;0.50;;;;;;;1.38;98.78;100902.50;5054889;28;20447;-56
2023/01/26 07:33:28;;;;;;;9.00;0.73;;;;;;;1.38;99.61;100910.38;5054927;28;20532;-56
2023/01/26 07:35:55;;;;;;;1.90;1.80;;;;;;;1.44;98.92;100912.19;5054883;28;20494;-54
2023/01/26 07:38:22;;;;;;;0.90;0.87;;;;;;;1.03;99.84;100906.19;5055185;28;20473;-55
2023/01/26 07:40:49;;;;;;;8.10;2.57;;;;;;;0.83;100.00;100909.28;5054793;28;21047;-55
2023/01/26 07:43:16;;;;;;;1.57;1.57;;;;;;;0.84;100.00;100916.28;5054643;28;20473;-55
2023/01/26 07:45:47;;;;;;;1.30;1.20;;;;;;;0.77;100.00;100918.72;5054638;28;20504;-55
2023/01/26 07:48:14;;;;;;;2.93;1.13;;;;;;;0.89;100.00;100924.22;5054973;28;20458;-55
2023/01/26 07:50:40;;;;;;;10.03;2.43;;;;;;;1.13;100.00;100921.22;5054732;28;20462;-56
2023/01/26 07:53:08;;;;;;;2.90;1.53;;;;;;;1.20;99.13;100923.09;5054399;28;20478;-55
2023/01/26 07:55:34;;;;;;;0.60;0.53;;;;;;;1.01;99.64;100934.94;5054360;28;20458;-56
2023/01/26 07:58:01;;;;;;;0.77;0.70;;;;;;;0.93;99.66;100936.50;5054571;28;20974;-56
2023/01/26 08:00:27;;;;;;;0.87;0.87;;;;;;;1.02;100.00;100933.22;5054218;28;20509;-55
2023/01/26 08:02:54;;;;;;;2.30;1.60;;;;;;;1.04;99.22;100928.88;5054400;28;20474;-55
2023/01/26 08:05:20;;;;;;;1.10;1.00;;;;;;;1.12;98.74;100919.47;5054240;28;20821;-55
2023/01/26 08:07:47;;;;;;;1.30;1.07;;;;;;;1.24;98.88;100916.19;5054312;28;20799;-56
2023/01/26 08:10:13;;;;;;;4.80;1.53;;;;;;;1.16;98.94;100923.88;5054170;28;20457;-55
2023/01/26 08:12:40;;;;;;;0.70;0.70;;;;;;;1.09;98.94;100922.00;5054176;28;20559;-55
2023/01/26 08:15:07;;;;;;;2.13;1.87;;;;;;;1.23;98.52;100920.53;5053525;28;20999;-55
2023/01/26 08:17:33;;;;;;;1.17;1.03;;;;;;;1.33;98.14;100921.59;5054281;28;20490;-55
2023/01/26 08:20:00;;;;;;;1.80;1.70;;;;;;;1.28;98.13;100924.13;5054122;28;20447;-56
2023/01/26 08:22:26;;;;;;;1.10;1.10;;;;;;;0.99;97.59;100923.56;5054079;28;20467;-55
2023/01/26 08:24:52;;;;;;;1.23;1.23;;;;;;;1.08;99.25;100930.69;5053942;28;20805;-56
2023/01/26 08:27:19;;;;;;;8.20;1.03;;;;;;;1.16;99.44;100923.88;5053933;28;20471;-56
2023/01/26 08:29:45;;;;;;;1.23;1.23;;;;;;;1.32;98.27;100932.91;5053641;28;20446;-56
2023/01/26 08:32:11;;;;;;;1.07;0.97;;;;;;;1.27;98.89;100926.72;5053732;28;20477;-56
2023/01/26 08:34:38;;;;;;;6.00;1.17;;;;;;;1.28;98.99;100932.00;5053917;28;20457;-56
2023/01/26 08:37:04;;;;;;;0.60;0.60;;;;;;;1.28;97.42;100937.22;5053575;28;20493;-55
2023/01/26 08:39:31;;;;;;;4.90;1.57;;;;;;;1.26;97.94;100930.19;5053577;28;20451;-55
2023/01/26 08:41:57;;;;;;;1.27;1.20;;;;;;;0.97;97.05;100942.72;5053492;28;20450;-56
2023/01/26 08:44:24;;;;;;;1.63;1.53;;;;;;;1.13;96.59;100947.41;5053526;28;20943;-56
2023/01/26 08:46:50;;;;;;;6.70;1.53;;;;;;;0.92;95.92;100939.09;5053700;28;20457;-55
2023/01/26 08:49:16;;;;;;;2.37;2.17;;;;;;;0.86;96.72;100938.13;5053643;28;20455;-56
2023/01/26 08:51:43;;;;;;;1.60;1.50;;;;;;;1.14;97.09;100928.22;5053492;28;20447;-55
2023/01/26 08:54:09;;;;;;;1.00;1.00;;;;;;;1.23;96.81;100933.63;5053193;28;20451;-55
2023/01/26 08:56:35;;;;;;;1.27;0.63;;;;;;;0.86;97.13;100937.25;5053140;28;20487;-55
2023/01/26 08:59:02;;;;;;;0.40;0.40;;;;;;;1.12;98.02;100938.66;5053416;28;20454;-55
2023/01/26 09:01:28;;;;;;;3.90;1.63;;;;;;;0.99;97.29;100941.88;5053280;28;20462;-55
2023/01/26 09:03:55;;;;;;;0.70;0.53;;;;;;;0.99;98.18;100941.00;5053005;28;20478;-55
2023/01/26 09:06:21;;;;;;;3.37;3.27;;;;;;;1.04;97.82;100942.84;5053211;28;20465;-55
2023/01/26 09:08:48;;;;;;;2.50;2.30;;;;;;;0.98;96.76;100944.47;5053007;28;20976;-55
2023/01/26 09:11:15;;;;;;;6.13;2.10;;;;;;;1.09;97.03;100930.72;5052966;28;20451;-55
2023/01/26 09:13:41;;;;;;;4.00;1.60;;;;;;;0.75;97.63;100951.81;5048567;28;20566;-56
2023/01/26 09:16:16;;;;;;;1.50;1.13;;;;;;;0.79;97.37;100941.44;5053024;28;20482;-55
2023/01/26 09:18:42;;;;;;;6.03;3.70;;;;;;;0.99;97.20;100925.31;5053036;28;20443;-55
2023/01/26 09:21:09;;;;;;;1.47;1.37;;;;;;;1.05;96.24;100935.88;5052807;28;20795;-56
2023/01/26 09:23:36;;;;;;;1.57;1.10;;;;;;;1.23;96.22;100933.63;5052799;28;20581;-55
2023/01/26 09:26:03;;;;;;;1.43;1.10;;;;;;;1.18;96.04;100930.91;5051995;28;20453;-56
2023/01/26 09:28:29;;;;;;;1.37;0.90;;;;;;;1.29;96.49;100939.00;5052758;28;20537;-55
2023/01/26 09:30:56;;;;;;;4.00;3.30;;;;;;;1.36;96.76;100947.84;5052979;28;20456;-55
2023/01/26 09:33:24;;;;;;;1.13;1.13;;;;;;;1.16;95.84;100945.72;5052834;28;20536;-55
2023/01/26 09:35:50;;;;;;;12.13;2.20;;;;;;;1.55;96.26;100943.84;5052549;28;20469;-56
2023/01/26 09:38:16;;;;;;;0.80;0.80;;;;;;;1.69;95.59;100951.09;5052804;28;20538;-55
2023/01/26 09:41:23;;;;;;;6.23;1.57;;;;;;;1.54;96.14;100949.94;5052589;28;20457;-56
2023/01/26 09:43:53;;;;;;;4.43;1.20;;;;;;;1.60;95.56;100950.03;5052800;28;20496;-56
2023/01/26 09:46:31;;;;;;;5.10;1.50;;;;;;;1.67;95.16;100949.31;5052628;28;20439;-55
2023/01/26 09:49:18;;;;;;;1.03;0.60;;;;;;;1.51;94.47;100952.47;5052490;28;20508;-55
2023/01/26 09:52:09;;;;;;;0.60;0.60;;;;;;;1.43;96.57;100945.38;5034759;28;20923;-56
2023/01/26 09:54:58;;;;;;;2.97;1.13;;;;;;;1.41;96.79;100952.31;5040399;28;20447;-56
2023/01/26 09:57:32;;;;;;;8.80;1.67;;;;;;;1.59;95.60;100950.88;5052476;28;20490;-55
2023/01/26 10:00:06;;;;;;;1.97;1.87;;;;;;;1.49;95.38;100950.72;5052626;28;21007;-55
2023/01/26 10:03:02;;;;;;;0.97;0.97;;;;;;;1.32;95.51;100953.88;5052197;28;20462;-56
2023/01/26 10:05:53;;;;;;;4.83;1.47;;;;;;;1.16;96.27;100955.31;5052028;28;20454;-55
2023/01/26 10:08:24;;;;;;;1.30;1.30;;;;;;;1.65;94.78;100945.78;5052298;28;20911;-56
2023/01/26 10:11:26;;;;;;;2.40;0.93;;;;;;;1.61;94.86;100947.44;5052348;28;20516;-56
2023/01/26 10:13:58;;;;;;;1.37;1.37;;;;;;;1.66;93.61;100943.19;5051864;28;20480;-55
2023/01/26 10:16:25;;;;;;;0.90;0.90;;;;;;;1.38;93.72;100939.19;5052444;28;20497;-55
2023/01/26 10:19:01;;;;;;;1.33;1.33;;;;;;;1.44;94.64;100939.28;5052287;28;20858;-55
2023/01/26 10:21:35;;;;;;;3.13;0.90;;;;;;;1.17;94.58;100931.78;5052085;28;20441;-56
2023/01/26 10:24:02;;;;;;;2.20;2.10;;;;;;;0.94;96.23;100934.78;5052179;28;20849;-56
2023/01/26 10:26:33;;;;;;;1.80;1.70;;;;;;;0.87;95.86;100937.28;5052043;28;20542;-55
2023/01/26 10:29:00;;;;;;;4.47;1.70;;;;;;;0.93;95.60;100927.78;5052300;28;20453;-56
2023/01/26 10:31:29;;;;;;;4.23;3.93;;;;;;;0.98;95.87;100929.66;5052065;28;20451;-56
2023/01/26 10:34:09;;;;;;;1.40;0.90;;;;;;;1.20;95.36;100925.72;5052108;28;20467;-56
2023/01/26 10:36:35;;;;;;;4.70;2.00;;;;;;;1.37;94.84;100926.94;5052902;28;20543;-56
2023/01/26 10:39:09;;;;;;;2.90;2.70;;;;;;;1.52;95.82;100923.72;5055875;28;20457;-56
2023/01/26 10:41:36;;;;;;;10.73;2.07;;;;;;;1.71;95.56;100917.06;5043026;28;20457;-56
2023/01/26 10:44:09;;;;;;;1.27;1.27;;;;;;;1.76;95.29;100912.75;5055776;28;20490;-56
2023/01/26 10:46:37;;;;;;;2.53;2.43;;;;;;;1.80;95.37;100918.97;5055776;28;20971;-56
2023/01/26 10:49:06;;;;;;;11.83;2.63;;;;;;;2.09;95.24;100917.69;5055664;28;20500;-56
2023/01/26 10:51:35;;;;;;;3.40;1.70;;;;;;;1.97;94.42;100918.38;5055630;28;20462;-55
2023/01/26 10:54:22;;;;;;;2.67;2.57;;;;;;;1.79;95.45;100907.59;5055684;28;20569;-56
2023/01/26 10:56:53;;;;;;;1.50;1.40;;;;;;;1.99;95.49;100911.41;5055713;28;20490;-56
2023/01/26 10:59:26;;;;;;;16.00;1.83;;;;;;;1.77;96.16;100911.91;5037901;28;20453;-56
2023/01/26 11:02:12;;;;;;;2.90;2.80;;;;;;;1.67;95.77;100902.16;5055463;28;20501;-55
2023/01/26 11:04:39;;;;;;;2.70;2.60;;;;;;;2.12;94.72;100906.38;5044762;28;20488;-56
2023/01/26 11:07:27;;;;;;;1.27;1.17;;;;;;;1.95;94.30;100911.34;5055339;28;20869;-56
2023/01/26 11:09:54;;;;;;;1.07;0.60;;;;;;;2.22;93.72;100901.28;5055341;28;20446;-55
2023/01/26 11:12:24;;;;;;;3.23;0.70;;;;;;;2.12;92.88;100891.53;5055229;28;21319;-55
2023/01/26 11:15:11;;;;;;;1.93;1.83;;;;;;;1.86;93.37;100888.47;5055434;28;20451;-55
2023/01/26 11:18:03;;;;;;;2.03;1.93;;;;;;;1.91;94.38;100876.31;5055123;28;20857;-56
2023/01/26 11:21:07;;;;;;;4.50;1.40;;;;;;;1.88;93.54;100878.91;5042684;28;20450;-56
2023/01/26 11:23:48;;;;;;;4.63;0.93;;;;;;;1.81;94.78;100879.66;5054457;28;20470;-56
2023/01/26 11:26:39;;;;;;;2.23;2.17;;;;;;;1.58;93.71;100863.56;5055000;28;20814;-55
2023/01/26 11:29:25;;;;;;;1.00;1.00;;;;;;;1.94;93.58;100862.41;5055200;28;20946;-55
2023/01/26 11:32:28;;;;;;;1.50;1.50;;;;;;;1.93;95.17;100865.88;5042210;28;20475;-55
2023/01/26 11:35:22;;;;;;;1.07;1.07;;;;;;;1.90;94.24;100871.94;5054834;28;20461;-56
2023/01/26 11:37:55;;;;;;;1.73;1.30;;;;;;;2.13;92.48;100871.41;5054793;28;20490;-56
2023/01/26 11:40:50;;;;;;;0.77;0.77;;;;;;;2.19;92.56;100868.88;5054728;28;20455;-56
2023/01/26 11:43:34;;;;;;;9.53;2.50;;;;;;;2.25;91.52;100868.97;5042653;28;20462;-56
2023/01/26 11:46:29;;;;;;;2.10;2.00;;;;;;;2.11;92.93;100860.91;5054671;28;20537;-55
2023/01/26 11:49:13;;;;;;;4.00;3.80;;;;;;;1.94;93.22;100860.66;5053627;28;20499;-56
2023/01/26 11:51:57;;;;;;;0.60;0.50;;;;;;;2.08;93.63;100859.13;5054484;28;20457;-55
2023/01/26 11:54:56;;;;;;;0.30;0.30;;;;;;;2.11;92.93;100853.06;5054523;28;20932;-56
2023/01/26 11:57:47;;;;;;;1.20;1.20;;;;;;;1.83;92.20;100856.09;5014422;28;20501;-56
2023/01/26 12:00:20;;;;;;;2.40;1.80;;;;;;;1.45;92.64;100852.00;5054439;28;20454;-55
2023/01/26 12:03:04;;;;;;;2.63;2.53;;;;;;;1.92;94.01;100849.28;5043883;28;21014;-56
2023/01/26 12:05:42;;;;;;;3.97;1.70;;;;;;;1.83;92.68;100845.63;5054413;28;20482;-56
2023/01/26 12:08:25;;;;;;;1.40;1.30;;;;;;;2.11;92.02;100836.44;5054445;28;20439;-56
2023/01/26 12:11:21;;;;;;;0.80;0.80;;;;;;;1.94;91.92;100829.22;5054472;28;20826;-56
2023/01/26 12:14:03;;;;;;;2.23;2.03;;;;;;;1.89;92.04;100835.22;5054158;28;20833;-55
2023/01/26 12:16:42;;;;;;;2.57;2.10;;;;;;;1.94;91.38;100825.72;5054112;28;20447;-56
2023/01/26 12:19:33;;;;;;;2.23;2.03;;;;;;;1.95;91.92;100822.22;5054439;28;20446;-56
2023/01/26 12:22:10;;;;;;;1.50;0.50;;;;;;;2.03;92.82;100820.56;5054006;28;20452;-56
2023/01/26 12:24:46;;;;;;;18.17;2.53;;;;;;;2.15;91.05;100802.41;5054082;28;20514;-55
2023/01/26 12:27:45;;;;;;;0.40;0.40;;;;;;;1.88;91.34;100805.50;5053829;28;21012;-56
2023/01/26 12:30:20;;;;;;;2.00;1.90;;;;;;;1.85;92.71;100799.34;5054026;28;20454;-55
2023/01/26 12:32:47;;;;;;;4.63;1.47;;;;;;;1.66;93.30;100803.44;5053727;28;20476;-56
2023/01/26 12:35:30;;;;;;;0.57;0.57;;;;;;;1.86;93.08;100804.63;5053889;28;20455;-56